Time;durP1;ratioP1;P1;durP2;ratioP2;P2;SDS_P1;SDS_P2;PMS_P1;PMS_P2;Temp;Humidity;BMP_temperature;BMP_pressure;BME280_temperature;BME280_humidity;BME280_pressure;Samples;Min_cycle;Max_cycle;Signal;HPM_P1;HPM_P2
2022/10/27 00:01:03;;;;;;;;;2.00;2.00;;;;;;;;4983739;28;8849;-80
2022/10/27 00:03:30;;;;;;;;;2.75;1.25;;;;;;;;4985925;28;8847;-80
2022/10/27 00:06:02;;;;;;;;;2.50;2.00;;;;;;;;4982881;28;8845;-79
2022/10/27 00:08:30;;;;;;;;;2.75;2.75;;;;;;;;4986163;28;8839;-79
2022/10/27 00:11:00;;;;;;;;;3.00;3.00;;;;;;;;4967156;28;8842;-79
2022/10/27 00:13:28;;;;;;;;;2.75;2.75;;;;;;;;4980607;28;9695;-79
2022/10/27 00:15:57;;;;;;;;;3.33;3.33;;;;;;;;4964089;28;8930;-79
2022/10/27 00:18:24;;;;;;;;;3.33;3.33;;;;;;;;4998801;28;8947;-78
2022/10/27 00:20:59;;;;;;;;;2.50;2.50;;;;;;;;4986974;28;9000;-78
2022/10/27 00:23:27;;;;;;;;;1.75;1.75;;;;;;;;5004475;28;8837;-78
2022/10/27 00:25:55;;;;;;;;;1.00;1.00;;;;;;;;5003933;28;8820;-79
2022/10/27 00:28:24;;;;;;;;;2.50;1.00;;;;;;;;5005097;28;8883;-79
2022/10/27 00:30:59;;;;;;;;;1.00;1.00;;;;;;;;4987975;28;8839;-79
2022/10/27 00:33:26;;;;;;;;;1.00;1.00;;;;;;;;5003019;28;8887;-80
2022/10/27 00:35:54;;;;;;;;;1.00;1.00;;;;;;;;5004167;28;8869;-80
2022/10/27 00:38:22;;;;;;;;;1.00;1.00;;;;;;;;4989524;28;8920;-79
2022/10/27 00:40:50;;;;;;;;;1.00;1.00;;;;;;;;4985479;28;9007;-78
2022/10/27 00:43:27;;;;;;;;;1.00;1.00;;;;;;;;4987796;28;8869;-79
2022/10/27 00:45:58;;;;;;;;;1.00;1.00;;;;;;;;5003405;28;9643;-80
2022/10/27 00:48:26;;;;;;;;;2.25;2.00;;;;;;;;5004631;28;8855;-80
2022/10/27 00:50:53;;;;;;;;;1.00;1.00;;;;;;;;5005425;28;8985;-80
2022/10/27 00:53:21;;;;;;;;;1.75;1.75;;;;;;;;4987500;28;9664;-80
2022/10/27 00:55:48;;;;;;;;;2.00;1.00;;;;;;;;4986635;28;8859;-80
2022/10/27 00:58:19;;;;;;;;;2.25;2.25;;;;;;;;5001876;28;9644;-80
2022/10/27 01:00:49;;;;;;;;;0.00;0.00;;;;;;;;5001525;28;8864;-79
2022/10/27 01:03:21;;;;;;;;;1.25;1.25;;;;;;;;5001909;28;8912;-80
2022/10/27 01:05:49;;;;;;;;;1.00;1.00;;;;;;;;4987105;28;8871;-79
2022/10/27 01:08:17;;;;;;;;;1.00;1.00;;;;;;;;5004061;28;8827;-80
2022/10/27 01:10:45;;;;;;;;;1.00;1.00;;;;;;;;5003431;28;8889;-78
2022/10/27 01:13:13;;;;;;;;;2.75;1.25;;;;;;;;5004669;28;8838;-78
2022/10/27 01:15:45;;;;;;;;;1.50;1.50;;;;;;;;4999661;28;8867;-79
2022/10/27 01:18:22;;;;;;;;;1.25;1.25;;;;;;;;5000843;28;8863;-79
2022/10/27 01:21:06;;;;;;;;;2.25;2.00;;;;;;;;5002659;28;8863;-78
2022/10/27 01:23:43;;;;;;;;;0.00;0.00;;;;;;;;5003454;28;8855;-79
2022/10/27 01:26:34;;;;;;;;;1.50;1.50;;;;;;;;5003627;28;8845;-78
2022/10/27 01:29:28;;;;;;;;;1.25;1.25;;;;;;;;4985705;28;8876;-77
2022/10/27 01:32:04;;;;;;;;;1.50;1.00;;;;;;;;4979205;28;8888;-78
2022/10/27 01:34:39;;;;;;;;;1.25;1.25;;;;;;;;5001606;28;8983;-78
2022/10/27 01:37:11;;;;;;;;;2.00;2.00;;;;;;;;5000942;28;8821;-79
2022/10/27 01:39:42;;;;;;;;;4.00;0.25;;;;;;;;4984319;28;8859;-79
2022/10/27 01:42:12;;;;;;;;;2.50;1.75;;;;;;;;5003607;28;8851;-78
2022/10/27 01:44:44;;;;;;;;;1.00;1.00;;;;;;;;5001017;28;8862;-78
2022/10/27 01:47:14;;;;;;;;;1.00;1.00;;;;;;;;5002911;28;8859;-79
2022/10/27 01:49:43;;;;;;;;;1.00;1.00;;;;;;;;5001752;28;8855;-79
2022/10/27 01:52:38;;;;;;;;;1.00;1.00;;;;;;;;5000035;28;8850;-79
2022/10/27 01:55:07;;;;;;;;;1.00;1.00;;;;;;;;4999758;28;8875;-80
2022/10/27 01:57:39;;;;;;;;;1.00;1.00;;;;;;;;5003328;28;8819;-78
2022/10/27 02:00:09;;;;;;;;;1.00;1.00;;;;;;;;4981326;28;8853;-79
2022/10/27 02:02:44;;;;;;;;;0.25;0.25;;;;;;;;4982488;28;9754;-78
2022/10/27 02:05:16;;;;;;;;;1.75;0.75;;;;;;;;5002142;28;8874;-78
2022/10/27 02:07:54;;;;;;;;;2.75;1.00;;;;;;;;5002266;28;8840;-77
2022/10/27 02:10:25;;;;;;;;;1.00;1.00;;;;;;;;4984173;28;8874;-79
2022/10/27 02:12:53;;;;;;;;;1.25;0.00;;;;;;;;4984235;28;8998;-79
2022/10/27 02:15:29;;;;;;;;;1.75;1.75;;;;;;;;4984935;28;9618;-79
2022/10/27 02:18:02;;;;;;;;;2.00;2.00;;;;;;;;4987979;28;8887;-79
2022/10/27 02:20:33;;;;;;;;;1.75;1.75;;;;;;;;4984621;28;8868;-80
2022/10/27 02:23:02;;;;;;;;;1.00;1.00;;;;;;;;4983337;28;8927;-79
2022/10/27 02:25:37;;;;;;;;;1.00;1.00;;;;;;;;5002092;28;9622;-79
2022/10/27 02:28:07;;;;;;;;;1.00;1.00;;;;;;;;5003022;28;8829;-79
2022/10/27 02:30:35;;;;;;;;;2.25;1.50;;;;;;;;4997998;28;8935;-80
2022/10/27 02:33:05;;;;;;;;;0.00;0.00;;;;;;;;5001077;28;8852;-80
2022/10/27 02:35:32;;;;;;;;;0.50;0.50;;;;;;;;5002882;28;8869;-80
2022/10/27 02:38:00;;;;;;;;;1.00;1.00;;;;;;;;5003378;28;8866;-80
2022/10/27 02:40:27;;;;;;;;;2.00;2.00;;;;;;;;5000909;28;9692;-79
2022/10/27 02:42:55;;;;;;;;;2.25;2.25;;;;;;;;5001475;28;8852;-79
2022/10/27 02:45:23;;;;;;;;;1.00;1.00;;;;;;;;5001302;28;8865;-78
2022/10/27 02:47:50;;;;;;;;;1.00;1.00;;;;;;;;5015470;28;8882;-79
2022/10/27 02:50:21;;;;;;;;;1.00;1.00;;;;;;;;4998422;28;9727;-79
2022/10/27 02:52:48;;;;;;;;;2.00;1.25;;;;;;;;5001379;28;8825;-79
2022/10/27 02:55:15;;;;;;;;;1.00;1.00;;;;;;;;5000513;28;8888;-79
2022/10/27 02:57:43;;;;;;;;;1.00;1.00;;;;;;;;5001164;28;8886;-79
2022/10/27 03:00:11;;;;;;;;;3.00;1.00;;;;;;;;5002247;28;8892;-79
2022/10/27 03:02:39;;;;;;;;;1.25;1.25;;;;;;;;5001141;28;9716;-79
2022/10/27 03:05:07;;;;;;;;;1.00;1.00;;;;;;;;5000027;28;8852;-79
2022/10/27 03:07:36;;;;;;;;;2.00;2.00;;;;;;;;5000585;28;8950;-78
2022/10/27 03:10:03;;;;;;;;;2.00;1.00;;;;;;;;5001701;28;8846;-80
2022/10/27 03:12:30;;;;;;;;;1.00;1.00;;;;;;;;5001055;28;8855;-79
2022/10/27 03:14:58;;;;;;;;;1.00;1.00;;;;;;;;5002166;28;8857;-79
2022/10/27 03:17:26;;;;;;;;;1.75;1.75;;;;;;;;5016316;28;8891;-80
2022/10/27 03:19:53;;;;;;;;;1.00;1.00;;;;;;;;5015883;28;8821;-80
2022/10/27 03:22:20;;;;;;;;;1.00;1.00;;;;;;;;4999848;28;8852;-80
2022/10/27 03:24:49;;;;;;;;;1.00;1.00;;;;;;;;5000515;28;8893;-81
2022/10/27 03:27:17;;;;;;;;;1.00;1.00;;;;;;;;5002978;28;8845;-80
2022/10/27 03:29:44;;;;;;;;;1.00;1.00;;;;;;;;5017344;28;8902;-79
2022/10/27 03:32:12;;;;;;;;;0.75;0.50;;;;;;;;5002176;28;8850;-80
2022/10/27 03:34:39;;;;;;;;;2.00;2.00;;;;;;;;5000514;28;8861;-80
2022/10/27 03:37:07;;;;;;;;;1.00;1.00;;;;;;;;5002027;28;8840;-80
2022/10/27 03:39:34;;;;;;;;;1.00;1.00;;;;;;;;5000489;28;8840;-81
2022/10/27 03:42:03;;;;;;;;;1.00;1.00;;;;;;;;5001792;28;8902;-81
2022/10/27 03:44:31;;;;;;;;;1.75;1.50;;;;;;;;5018387;28;8836;-82
2022/10/27 03:46:58;;;;;;;;;0.00;0.00;;;;;;;;4984972;28;8863;-80
2022/10/27 03:49:26;;;;;;;;;1.00;1.00;;;;;;;;5000738;28;8843;-80
2022/10/27 03:51:53;;;;;;;;;2.00;0.50;;;;;;;;5002710;28;8875;-80
2022/10/27 03:54:20;;;;;;;;;1.50;1.50;;;;;;;;5001251;28;8926;-79
2022/10/27 03:56:48;;;;;;;;;0.00;0.00;;;;;;;;5001100;28;8859;-79
2022/10/27 03:59:16;;;;;;;;;1.00;1.00;;;;;;;;5018004;28;8980;-79
2022/10/27 04:01:44;;;;;;;;;2.50;2.50;;;;;;;;5000713;28;9632;-79
2022/10/27 04:04:12;;;;;;;;;1.50;1.00;;;;;;;;5001560;28;8852;-78
2022/10/27 04:06:39;;;;;;;;;1.75;0.50;;;;;;;;5001627;28;8859;-78
2022/10/27 04:09:07;;;;;;;;;1.75;1.75;;;;;;;;5001372;28;8841;-80
2022/10/27 04:11:34;;;;;;;;;2.50;1.00;;;;;;;;5016769;28;9649;-79
2022/10/27 04:14:02;;;;;;;;;1.00;1.00;;;;;;;;5002321;28;8848;-80
2022/10/27 04:16:31;;;;;;;;;1.00;1.00;;;;;;;;5005143;28;8828;-80
2022/10/27 04:18:58;;;;;;;;;2.25;1.50;;;;;;;;5005778;28;8831;-80
2022/10/27 04:21:26;;;;;;;;;1.00;1.00;;;;;;;;4987588;28;8835;-80
2022/10/27 04:23:54;;;;;;;;;1.25;1.25;;;;;;;;5004268;28;8839;-79
2022/10/27 04:26:22;;;;;;;;;1.00;1.00;;;;;;;;5005558;28;8854;-80
2022/10/27 04:28:50;;;;;;;;;1.00;1.00;;;;;;;;5004664;28;8843;-80
2022/10/27 04:31:18;;;;;;;;;1.25;1.25;;;;;;;;5005995;28;8867;-80
2022/10/27 04:33:47;;;;;;;;;1.00;1.00;;;;;;;;5005412;28;8867;-80
2022/10/27 04:36:14;;;;;;;;;1.75;1.75;;;;;;;;4988782;28;8867;-80
2022/10/27 04:38:42;;;;;;;;;0.75;0.75;;;;;;;;5005517;28;8863;-81
2022/10/27 04:41:09;;;;;;;;;1.00;1.00;;;;;;;;4987771;28;8831;-80
2022/10/27 04:43:36;;;;;;;;;0.25;0.25;;;;;;;;5004076;28;8873;-80
2022/10/27 04:46:04;;;;;;;;;1.00;1.00;;;;;;;;4988027;28;8929;-80
2022/10/27 04:48:31;;;;;;;;;1.00;1.00;;;;;;;;4991667;28;8863;-81
2022/10/27 04:51:00;;;;;;;;;1.00;1.00;;;;;;;;5005889;28;8849;-81
2022/10/27 04:53:28;;;;;;;;;2.00;2.00;;;;;;;;5006003;28;8865;-81
2022/10/27 04:55:55;;;;;;;;;1.00;1.00;;;;;;;;4987936;28;8937;-80
2022/10/27 04:58:23;;;;;;;;;1.25;1.25;;;;;;;;5004842;28;8869;-79
2022/10/27 05:00:50;;;;;;;;;1.75;1.75;;;;;;;;4984971;28;8872;-79
2022/10/27 05:03:18;;;;;;;;;1.00;1.00;;;;;;;;4969761;28;8879;-79
2022/10/27 05:05:46;;;;;;;;;2.00;2.00;;;;;;;;5001925;28;8859;-79
2022/10/27 05:08:15;;;;;;;;;2.00;2.00;;;;;;;;5002046;28;8917;-77
2022/10/27 05:10:42;;;;;;;;;1.75;1.75;;;;;;;;5001849;28;8882;-79
2022/10/27 05:13:10;;;;;;;;;2.00;2.00;;;;;;;;4985166;28;9010;-79
2022/10/27 05:15:37;;;;;;;;;1.25;1.25;;;;;;;;5002365;28;8889;-79
2022/10/27 05:18:04;;;;;;;;;2.00;2.00;;;;;;;;5003205;28;9672;-78
2022/10/27 05:20:32;;;;;;;;;1.00;1.00;;;;;;;;5002090;28;8851;-79
2022/10/27 05:23:00;;;;;;;;;3.00;3.00;;;;;;;;5001766;28;8847;-78
2022/10/27 05:25:29;;;;;;;;;5.00;1.25;;;;;;;;4984445;28;8861;-79
2022/10/27 05:28:04;;;;;;;;;1.75;1.75;;;;;;;;4998931;28;8894;-79
2022/10/27 05:30:31;;;;;;;;;1.00;1.00;;;;;;;;4988326;28;8839;-78
2022/10/27 05:32:59;;;;;;;;;4.00;3.00;;;;;;;;4970620;28;8873;-79
2022/10/27 05:35:26;;;;;;;;;2.00;2.00;;;;;;;;5002270;28;8881;-79
2022/10/27 05:37:54;;;;;;;;;3.50;2.00;;;;;;;;5003393;28;8859;-80
2022/10/27 05:40:23;;;;;;;;;1.00;1.00;;;;;;;;5002249;28;8930;-79
2022/10/27 05:42:53;;;;;;;;;0.00;0.00;;;;;;;;5003630;28;8867;-80
2022/10/27 05:45:22;;;;;;;;;2.00;2.00;;;;;;;;5001459;28;8883;-79
2022/10/27 05:47:50;;;;;;;;;3.00;3.00;;;;;;;;5003151;28;8873;-80
2022/10/27 05:50:17;;;;;;;;;2.75;1.50;;;;;;;;5002899;28;8875;-79
2022/10/27 05:52:47;;;;;;;;;3.00;2.50;;;;;;;;4970364;28;8859;-80
2022/10/27 05:55:15;;;;;;;;;3.25;1.75;;;;;;;;5001680;28;8859;-79
2022/10/27 05:57:42;;;;;;;;;2.75;2.75;;;;;;;;5001823;28;8834;-79
2022/10/27 06:00:12;;;;;;;;;2.50;2.50;;;;;;;;5001858;28;8905;-79
2022/10/27 06:02:39;;;;;;;;;2.00;2.00;;;;;;;;5003268;28;8855;-80
2022/10/27 06:05:08;;;;;;;;;2.50;2.50;;;;;;;;4981136;28;8878;-79
2022/10/27 06:07:35;;;;;;;;;5.00;3.25;;;;;;;;5001373;28;8864;-79
2022/10/27 06:10:02;;;;;;;;;2.00;2.00;;;;;;;;5002709;28;8877;-79
2022/10/27 06:12:30;;;;;;;;;2.00;2.00;;;;;;;;5001129;28;9530;-77
2022/10/27 06:14:57;;;;;;;;;3.00;3.00;;;;;;;;5000887;28;8875;-80
2022/10/27 06:17:29;;;;;;;;;2.75;2.00;;;;;;;;5000921;28;8835;-80
2022/10/27 06:19:56;;;;;;;;;2.00;2.00;;;;;;;;5000734;28;9664;-74
2022/10/27 06:22:25;;;;;;;;;2.25;2.25;;;;;;;;5005274;28;8834;-76
2022/10/27 06:24:52;;;;;;;;;1.00;1.00;;;;;;;;4992086;28;8966;-78
2022/10/27 06:27:20;;;;;;;;;2.50;1.00;;;;;;;;5000828;28;9673;-77
2022/10/27 06:29:48;;;;;;;;;2.25;2.25;;;;;;;;5001924;28;8871;-76
2022/10/27 06:32:15;;;;;;;;;2.25;2.00;;;;;;;;5001115;28;8871;-74
2022/10/27 06:34:44;;;;;;;;;2.00;2.00;;;;;;;;5000610;28;8878;-74
2022/10/27 06:37:11;;;;;;;;;1.00;1.00;;;;;;;;4999446;28;8854;-78
2022/10/27 06:39:40;;;;;;;;;4.00;2.50;;;;;;;;4964682;28;8861;-74
2022/10/27 06:42:08;;;;;;;;;4.00;2.75;;;;;;;;5000331;28;9009;-75
2022/10/27 06:44:36;;;;;;;;;2.00;2.00;;;;;;;;4999738;28;8873;-74
2022/10/27 06:47:04;;;;;;;;;3.00;2.00;;;;;;;;5000358;28;8862;-75
2022/10/27 06:49:31;;;;;;;;;2.25;2.00;;;;;;;;4982673;28;8881;-76
2022/10/27 06:52:02;;;;;;;;;2.00;2.00;;;;;;;;4981754;28;8874;-75
2022/10/27 06:54:29;;;;;;;;;2.00;2.00;;;;;;;;4998877;28;8843;-74
2022/10/27 06:56:56;;;;;;;;;3.00;1.75;;;;;;;;4998890;28;8874;-73
2022/10/27 06:59:24;;;;;;;;;1.75;1.25;;;;;;;;4984181;28;8839;-73
2022/10/27 07:01:51;;;;;;;;;1.50;1.50;;;;;;;;4983550;28;8946;-76
2022/10/27 07:04:19;;;;;;;;;2.00;2.00;;;;;;;;4983693;28;8875;-77
2022/10/27 07:06:47;;;;;;;;;3.00;2.00;;;;;;;;4996027;28;8999;-78
2022/10/27 07:09:16;;;;;;;;;2.00;2.00;;;;;;;;4998394;28;9662;-74
2022/10/27 07:11:43;;;;;;;;;2.00;2.00;;;;;;;;4999103;28;8856;-73
2022/10/27 07:14:11;;;;;;;;;2.00;2.00;;;;;;;;4986577;28;8847;-74
2022/10/27 07:16:39;;;;;;;;;3.75;3.00;;;;;;;;4997573;28;8859;-74
2022/10/27 07:19:19;;;;;;;;;3.00;2.75;;;;;;;;4998327;28;8844;-76
2022/10/27 07:21:46;;;;;;;;;2.00;2.00;;;;;;;;5001166;28;9062;-78
2022/10/27 07:24:15;;;;;;;;;3.50;3.50;;;;;;;;5000411;28;8919;-76
2022/10/27 07:26:43;;;;;;;;;4.00;2.25;;;;;;;;4999461;28;9026;-75
2022/10/27 07:29:11;;;;;;;;;2.00;2.00;;;;;;;;5000224;28;8852;-75
2022/10/27 07:31:38;;;;;;;;;2.00;1.75;;;;;;;;5016143;28;8857;-75
2022/10/27 07:34:08;;;;;;;;;4.00;2.75;;;;;;;;5000713;28;8836;-75
2022/10/27 07:36:36;;;;;;;;;3.00;2.00;;;;;;;;5015655;28;8841;-75
2022/10/27 07:39:03;;;;;;;;;2.25;2.25;;;;;;;;4999168;28;9792;-71
2022/10/27 07:41:33;;;;;;;;;2.75;2.75;;;;;;;;5000188;28;8856;-71
2022/10/27 07:44:00;;;;;;;;;3.00;2.00;;;;;;;;5000651;28;8857;-72
2022/10/27 07:46:29;;;;;;;;;2.00;2.00;;;;;;;;5002654;28;9645;-75
2022/10/27 07:48:56;;;;;;;;;3.00;3.00;;;;;;;;4999819;28;8825;-74
2022/10/27 07:51:24;;;;;;;;;2.50;2.50;;;;;;;;5001909;28;9635;-75
2022/10/27 07:53:51;;;;;;;;;1.00;1.00;;;;;;;;5002508;28;8853;-74
2022/10/27 07:56:18;;;;;;;;;2.67;1.67;;;;;;;;5003216;28;8884;-75
2022/10/27 07:58:51;;;;;;;;;2.00;2.00;;;;;;;;5020682;28;8938;-74
2022/10/27 08:01:18;;;;;;;;;3.00;3.00;;;;;;;;5001523;28;8880;-74
2022/10/27 08:03:48;;;;;;;;;3.00;3.00;;;;;;;;5004617;28;9023;-79
2022/10/27 08:06:17;;;;;;;;;5.75;3.00;;;;;;;;5004249;28;9709;-77
2022/10/27 08:08:45;;;;;;;;;3.00;3.00;;;;;;;;5001386;28;8967;-77
2022/10/27 08:11:12;;;;;;;;;4.75;3.00;;;;;;;;5003517;28;8864;-77
2022/10/27 08:13:40;;;;;;;;;3.00;3.00;;;;;;;;5020352;28;8860;-78
2022/10/27 08:16:09;;;;;;;;;3.00;3.00;;;;;;;;5003608;28;8852;-74
2022/10/27 08:18:36;;;;;;;;;2.25;1.50;;;;;;;;5001846;28;8926;-74
2022/10/27 08:21:05;;;;;;;;;2.00;2.00;;;;;;;;5006256;28;8868;-75
2022/10/27 08:23:33;;;;;;;;;3.25;3.00;;;;;;;;5001770;28;8868;-76
2022/10/27 08:26:01;;;;;;;;;4.50;3.00;;;;;;;;5001757;28;8880;-74
2022/10/27 08:28:28;;;;;;;;;2.75;2.00;;;;;;;;5018710;28;8872;-74
2022/10/27 08:30:57;;;;;;;;;3.00;3.00;;;;;;;;5002034;28;8864;-76
2022/10/27 08:33:26;;;;;;;;;3.25;2.00;;;;;;;;5005840;28;8862;-75
2022/10/27 08:35:54;;;;;;;;;2.20;2.20;;;;;;;;5003456;28;8918;-77
2022/10/27 08:38:21;;;;;;;;;4.20;3.00;;;;;;;;5019408;28;8848;-75
2022/10/27 08:41:03;;;;;;;;;3.00;3.00;;;;;;;;5002161;28;8849;-75
2022/10/27 08:43:51;;;;;;;;;3.20;3.20;;;;;;;;5005056;28;8934;-75
2022/10/27 08:46:25;;;;;;;;;5.40;4.40;;;;;;;;5003591;28;8868;-75
2022/10/27 08:48:58;;;;;;;;;2.40;2.40;;;;;;;;5019657;28;8851;-74
2022/10/27 08:51:27;;;;;;;;;4.00;4.00;;;;;;;;5005719;28;8848;-74
2022/10/27 08:53:57;;;;;;;;;3.00;3.00;;;;;;;;5002006;28;8841;-74
2022/10/27 08:56:27;;;;;;;;;3.40;3.00;;;;;;;;5003291;28;8848;-74
2022/10/27 08:58:55;;;;;;;;;4.00;2.80;;;;;;;;5017522;28;8967;-74
2022/10/27 09:01:29;;;;;;;;;3.20;3.20;;;;;;;;5003515;28;8852;-75
2022/10/27 09:04:16;;;;;;;;;2.00;2.00;;;;;;;;5004830;28;8886;-74
2022/10/27 09:06:52;;;;;;;;;4.80;3.00;;;;;;;;5003805;28;8872;-74
2022/10/27 09:09:27;;;;;;;;;2.00;2.00;;;;;;;;5004485;28;8848;-73
2022/10/27 09:12:03;;;;;;;;;4.80;3.00;;;;;;;;5003259;28;8835;-74
2022/10/27 09:14:46;;;;;;;;;4.40;3.00;;;;;;;;5002812;28;8844;-74
2022/10/27 09:17:15;;;;;;;;;2.00;2.00;;;;;;;;5004420;28;8859;-74
2022/10/27 09:19:46;;;;;;;;;4.00;3.00;;;;;;;;5004906;28;8886;-73
2022/10/27 09:22:17;;;;;;;;;3.40;3.40;;;;;;;;4985403;28;8907;-73
2022/10/27 09:24:50;;;;;;;;;3.40;3.40;;;;;;;;4986994;28;8847;-74
2022/10/27 09:27:17;;;;;;;;;5.00;3.00;;;;;;;;5004091;28;8859;-73
2022/10/27 09:29:45;;;;;;;;;5.60;3.20;;;;;;;;4985386;28;8866;-73
2022/10/27 09:32:18;;;;;;;;;5.60;5.60;;;;;;;;5003670;28;8848;-73
2022/10/27 09:34:51;;;;;;;;;3.20;3.00;;;;;;;;5004277;28;8855;-74
2022/10/27 09:37:20;;;;;;;;;4.60;3.60;;;;;;;;5002254;28;8856;-74
2022/10/27 09:39:49;;;;;;;;;6.00;4.00;;;;;;;;5000603;28;8897;-74
2022/10/27 09:42:16;;;;;;;;;5.60;4.00;;;;;;;;4984027;28;8883;-73
2022/10/27 09:44:46;;;;;;;;;4.00;3.00;;;;;;;;5004327;28;8893;-74
2022/10/27 09:47:14;;;;;;;;;4.60;4.60;;;;;;;;5000985;28;8866;-75
2022/10/27 09:49:44;;;;;;;;;4.80;2.80;;;;;;;;5003952;28;8882;-77
2022/10/27 09:52:17;;;;;;;;;5.00;3.20;;;;;;;;5003100;28;8850;-75
2022/10/27 09:54:51;;;;;;;;;6.00;4.20;;;;;;;;4980133;28;9653;-76
2022/10/27 09:57:20;;;;;;;;;3.40;3.20;;;;;;;;5003635;28;8914;-77
2022/10/27 09:59:53;;;;;;;;;5.40;4.00;;;;;;;;4970486;28;9377;-76
2022/10/27 10:02:25;;;;;;;;;3.00;3.00;;;;;;;;4986524;28;8855;-75
2022/10/27 10:04:53;;;;;;;;;5.00;4.40;;;;;;;;5008398;28;8850;-74
2022/10/27 10:07:34;;;;;;;;;3.60;3.60;;;;;;;;5006503;28;9046;-75
2022/10/27 10:10:05;;;;;;;;;3.00;3.00;;;;;;;;5003526;28;8847;-76
2022/10/27 10:12:33;;;;;;;;;5.00;3.60;;;;;;;;5003617;28;8827;-75
2022/10/27 10:15:19;;;;;;;;;2.60;2.60;;;;;;;;5003967;28;8848;-73
2022/10/27 10:17:55;;;;;;;;;2.80;2.80;;;;;;;;5003785;28;8921;-73
2022/10/27 10:20:41;;;;;;;;;3.60;3.00;;;;;;;;4996795;28;8850;-76
2022/10/27 10:23:20;;;;;;;;;2.00;2.00;;;;;;;;5004688;28;8850;-74
2022/10/27 10:25:52;;;;;;;;;2.80;2.00;;;;;;;;5007131;28;8874;-75
2022/10/27 10:28:23;;;;;;;;;7.00;5.80;;;;;;;;4999742;28;8889;-73
2022/10/27 10:30:52;;;;;;;;;2.00;2.00;;;;;;;;5000536;28;8852;-72
2022/10/27 10:33:20;;;;;;;;;4.00;4.00;;;;;;;;5002704;28;8851;-73
2022/10/27 10:35:48;;;;;;;;;3.60;3.60;;;;;;;;5003251;28;8873;-74
2022/10/27 10:38:33;;;;;;;;;4.00;2.40;;;;;;;;5000983;28;8969;-73
2022/10/27 10:41:03;;;;;;;;;4.00;4.00;;;;;;;;4996501;28;8873;-74
2022/10/27 10:43:32;;;;;;;;;3.00;3.00;;;;;;;;5002357;28;8884;-75
2022/10/27 10:46:00;;;;;;;;;4.40;4.00;;;;;;;;4984999;28;9017;-77
2022/10/27 10:48:31;;;;;;;;;3.00;3.00;;;;;;;;5001746;28;8866;-75
2022/10/27 10:51:00;;;;;;;;;5.40;4.00;;;;;;;;5001048;28;8863;-77
2022/10/27 10:53:32;;;;;;;;;6.00;2.80;;;;;;;;5002010;28;8961;-76
2022/10/27 10:56:03;;;;;;;;;3.40;3.40;;;;;;;;5005520;28;8843;-76
2022/10/27 10:58:33;;;;;;;;;3.00;3.00;;;;;;;;4978267;28;8813;-77
2022/10/27 11:01:01;;;;;;;;;5.20;3.40;;;;;;;;5002460;28;8888;-78
2022/10/27 11:03:32;;;;;;;;;3.60;3.00;;;;;;;;5001061;28;8924;-78
2022/10/27 11:06:13;;;;;;;;;3.60;3.60;;;;;;;;5003169;28;8852;-77
2022/10/27 11:08:43;;;;;;;;;3.80;3.80;;;;;;;;4997856;28;9022;-77
2022/10/27 11:11:18;;;;;;;;;3.20;3.20;;;;;;;;5003132;28;8962;-78
2022/10/27 11:13:50;;;;;;;;;3.80;2.80;;;;;;;;5001535;28;9633;-77
2022/10/27 11:16:18;;;;;;;;;5.40;3.60;;;;;;;;4982555;28;8890;-76
2022/10/27 11:18:51;;;;;;;;;4.00;4.00;;;;;;;;5000894;28;8832;-75
2022/10/27 11:21:28;;;;;;;;;3.00;3.00;;;;;;;;5001860;28;8867;-80
2022/10/27 11:24:00;;;;;;;;;4.80;4.80;;;;;;;;4981204;28;8972;-77
2022/10/27 11:26:33;;;;;;;;;3.00;3.00;;;;;;;;4982383;28;8878;-75
2022/10/27 11:29:07;;;;;;;;;4.00;3.80;;;;;;;;4998927;28;8833;-76
2022/10/27 11:31:41;;;;;;;;;4.00;3.00;;;;;;;;5001413;28;8880;-75
2022/10/27 11:34:17;;;;;;;;;4.80;1.60;;;;;;;;5002188;28;8858;-73
2022/10/27 11:36:48;;;;;;;;;4.80;4.80;;;;;;;;5000407;28;8866;-73
2022/10/27 11:39:21;;;;;;;;;5.00;3.80;;;;;;;;5002793;28;8882;-73
2022/10/27 11:41:53;;;;;;;;;3.00;3.00;;;;;;;;5001400;28;8941;-73
2022/10/27 11:44:30;;;;;;;;;3.00;3.00;;;;;;;;4997403;28;8889;-74
2022/10/27 11:47:01;;;;;;;;;4.80;3.80;;;;;;;;4978644;28;8873;-74
2022/10/27 11:49:36;;;;;;;;;3.20;3.20;;;;;;;;4994908;28;8843;-73
2022/10/27 11:52:09;;;;;;;;;3.60;3.60;;;;;;;;4983977;28;8853;-72
2022/10/27 11:54:38;;;;;;;;;2.60;2.60;;;;;;;;5000573;28;8984;-73
2022/10/27 11:57:19;;;;;;;;;3.00;3.00;;;;;;;;4999806;28;9040;-78
2022/10/27 11:59:59;;;;;;;;;2.80;2.80;;;;;;;;4991630;28;8991;-75
2022/10/27 12:02:51;;;;;;;;;5.80;4.00;;;;;;;;4981947;28;8860;-74
2022/10/27 12:05:22;;;;;;;;;2.60;2.60;;;;;;;;5001193;28;8863;-73
2022/10/27 12:07:58;;;;;;;;;4.60;4.60;;;;;;;;4996686;28;9041;-75
2022/10/27 12:10:36;;;;;;;;;5.20;3.80;;;;;;;;4992561;28;8867;-75
2022/10/27 12:13:07;;;;;;;;;5.00;3.80;;;;;;;;4998005;28;8867;-76
2022/10/27 12:15:43;;;;;;;;;4.00;4.00;;;;;;;;4997421;28;8871;-77
2022/10/27 12:18:17;;;;;;;;;3.80;3.80;;;;;;;;4998650;28;8991;-75
2022/10/27 12:20:50;;;;;;;;;5.00;3.60;;;;;;;;4982961;28;10216;-75
2022/10/27 12:23:20;;;;;;;;;3.00;3.00;;;;;;;;4981208;28;8847;-75
2022/10/27 12:26:08;;;;;;;;;5.00;5.00;;;;;;;;5002081;28;8848;-74
2022/10/27 12:28:36;;;;;;;;;3.60;1.80;;;;;;;;5000856;28;9635;-75
2022/10/27 12:31:07;;;;;;;;;3.80;2.60;;;;;;;;5000650;28;8856;-75
2022/10/27 12:33:39;;;;;;;;;3.40;3.40;;;;;;;;4983937;28;8844;-76
2022/10/27 12:36:15;;;;;;;;;2.80;2.80;;;;;;;;4987629;28;8867;-75
2022/10/27 12:38:48;;;;;;;;;4.60;4.60;;;;;;;;5003344;28;8820;-75
2022/10/27 12:41:23;;;;;;;;;3.80;3.80;;;;;;;;5004439;28;8917;-75
2022/10/27 12:44:03;;;;;;;;;6.00;5.00;;;;;;;;5004953;28;8885;-75
2022/10/27 12:46:51;;;;;;;;;7.00;4.20;;;;;;;;5006272;28;8842;-75
2022/10/27 12:49:26;;;;;;;;;4.80;4.80;;;;;;;;5001950;28;8855;-75
2022/10/27 12:52:02;;;;;;;;;3.40;3.40;;;;;;;;5001372;28;8832;-74
2022/10/27 12:54:44;;;;;;;;;5.80;4.60;;;;;;;;5002583;28;8852;-74
2022/10/27 12:57:23;;;;;;;;;1.80;1.80;;;;;;;;4986281;28;8846;-73
2022/10/27 12:59:58;;;;;;;;;4.20;4.20;;;;;;;;4987239;28;8846;-73
2022/10/27 13:02:29;;;;;;;;;3.20;3.20;;;;;;;;5001613;28;8836;-77
2022/10/27 13:05:35;;;;;;;;;3.60;3.60;;;;;;;;5004788;28;8858;-77
2022/10/27 13:08:24;;;;;;;;;5.00;4.00;;;;;;;;5002267;28;8945;-76
2022/10/27 13:11:24;;;;;;;;;5.40;4.40;;;;;;;;5000692;28;9756;-76
2022/10/27 13:14:21;;;;;;;;;4.20;3.20;;;;;;;;5000513;28;9644;-77
2022/10/27 13:16:58;;;;;;;;;3.40;3.40;;;;;;;;5005424;28;9732;-73
2022/10/27 13:19:35;;;;;;;;;5.60;4.60;;;;;;;;5004827;28;8870;-72
2022/10/27 13:22:10;;;;;;;;;3.60;3.00;;;;;;;;4987008;28;8870;-73
2022/10/27 13:24:43;;;;;;;;;2.00;2.00;;;;;;;;4986721;28;8865;-73
2022/10/27 13:27:16;;;;;;;;;2.80;2.80;;;;;;;;5001802;28;8880;-73
2022/10/27 13:29:48;;;;;;;;;3.80;3.80;;;;;;;;5002050;28;8843;-75
2022/10/27 13:32:31;;;;;;;;;4.00;4.00;;;;;;;;5003715;28;8839;-77
2022/10/27 13:35:39;;;;;;;;;3.20;3.20;;;;;;;;5004630;28;8871;-73
2022/10/27 13:38:25;;;;;;;;;4.80;4.00;;;;;;;;5004676;28;8847;-72
2022/10/27 13:40:56;;;;;;;;;3.60;3.60;;;;;;;;5000834;28;8848;-72
2022/10/27 13:43:51;;;;;;;;;4.40;3.60;;;;;;;;4987740;28;8864;-73
2022/10/27 13:46:20;;;;;;;;;3.80;3.80;;;;;;;;4983301;28;8860;-72
2022/10/27 13:48:48;;;;;;;;;5.40;4.20;;;;;;;;5003404;28;8856;-73
2022/10/27 13:51:39;;;;;;;;;4.20;4.20;;;;;;;;5004246;28;8855;-73
2022/10/27 13:54:40;;;;;;;;;4.40;4.00;;;;;;;;5003589;28;8883;-73
2022/10/27 13:57:31;;;;;;;;;0.60;0.60;;;;;;;;5005463;28;9746;-73
2022/10/27 14:00:04;;;;;;;;;6.60;3.40;;;;;;;;5003251;28;8973;-73
2022/10/27 14:02:41;;;;;;;;;3.00;3.00;;;;;;;;5003229;28;8870;-73
2022/10/27 14:05:21;;;;;;;;;4.00;3.60;;;;;;;;5003120;28;8843;-73
2022/10/27 14:07:49;;;;;;;;;1.80;1.80;;;;;;;;5003199;28;8901;-73
2022/10/27 14:10:16;;;;;;;;;2.40;2.20;;;;;;;;5001073;28;8985;-73
2022/10/27 14:12:44;;;;;;;;;5.40;5.40;;;;;;;;4985550;28;8856;-73
2022/10/27 14:15:18;;;;;;;;;4.20;4.20;;;;;;;;4982980;28;8859;-73
2022/10/27 14:17:48;;;;;;;;;5.40;4.00;;;;;;;;4996773;28;8857;-73
2022/10/27 14:20:19;;;;;;;;;3.00;3.00;;;;;;;;4971718;28;8854;-72
2022/10/27 14:22:49;;;;;;;;;4.60;4.00;;;;;;;;4989409;28;8828;-72
2022/10/27 14:25:19;;;;;;;;;0.20;0.20;;;;;;;;4988156;28;8856;-72
2022/10/27 14:27:46;;;;;;;;;4.40;4.20;;;;;;;;4989479;28;8862;-72
2022/10/27 14:30:16;;;;;;;;;5.60;5.60;;;;;;;;4983128;28;8889;-72
2022/10/27 14:32:45;;;;;;;;;3.80;3.80;;;;;;;;4958041;28;8865;-72
2022/10/27 14:35:25;;;;;;;;;3.40;3.40;;;;;;;;4966318;28;8910;-72
2022/10/27 14:37:56;;;;;;;;;5.80;4.60;;;;;;;;4984443;28;8838;-72
2022/10/27 14:40:31;;;;;;;;;3.80;3.80;;;;;;;;4971939;28;8872;-72
2022/10/27 14:42:58;;;;;;;;;6.20;4.80;;;;;;;;4968974;28;8887;-72
2022/10/27 14:45:26;;;;;;;;;3.80;3.80;;;;;;;;4986968;28;8862;-72
2022/10/27 14:47:59;;;;;;;;;4.20;4.20;;;;;;;;4984003;28;8857;-72
2022/10/27 14:50:29;;;;;;;;;4.60;4.60;;;;;;;;4985101;28;8849;-72
2022/10/27 14:52:59;;;;;;;;;5.60;3.80;;;;;;;;4985555;28;8851;-73
2022/10/27 14:55:30;;;;;;;;;4.00;3.80;;;;;;;;4987515;28;8866;-72
2022/10/27 14:57:58;;;;;;;;;6.00;4.40;;;;;;;;4985594;28;8870;-72
2022/10/27 15:00:27;;;;;;;;;4.20;4.20;;;;;;;;4968799;28;8901;-72
2022/10/27 15:02:58;;;;;;;;;6.20;4.80;;;;;;;;4971245;28;8842;-71
2022/10/27 15:05:26;;;;;;;;;4.60;4.60;;;;;;;;4983085;28;8859;-72
2022/10/27 15:07:55;;;;;;;;;4.80;4.80;;;;;;;;4988811;28;8844;-72
2022/10/27 15:10:23;;;;;;;;;5.00;3.20;;;;;;;;4984462;28;8884;-72
2022/10/27 15:12:54;;;;;;;;;4.00;4.00;;;;;;;;4972875;28;8879;-72
2022/10/27 15:15:22;;;;;;;;;3.80;3.80;;;;;;;;4991448;28;9735;-72
2022/10/27 15:17:51;;;;;;;;;3.40;2.00;;;;;;;;4994458;28;9630;-72
2022/10/27 15:20:19;;;;;;;;;3.80;3.80;;;;;;;;5001180;28;8871;-72